createdAt,value
2019-05-07T00:02:04.666Z,6.24
2019-05-07T00:04:35.897Z,6.15
2019-05-07T00:07:07.081Z,6.26
2019-05-07T00:09:38.957Z,6.23
2019-05-07T00:12:12.569Z,6.12
2019-05-07T00:14:58.109Z,5.97
2019-05-07T00:17:18.052Z,5.83
2019-05-07T00:19:49.301Z,5.74
2019-05-07T00:22:22.696Z,5.64
2019-05-07T00:24:54.895Z,5.55
2019-05-07T00:27:26.816Z,5.46
2019-05-07T00:29:58.721Z,5.42
2019-05-07T00:32:32.719Z,5.37
2019-05-07T00:35:06.084Z,5.26
2019-05-07T00:37:45.902Z,5.18
2019-05-07T00:40:37.136Z,5.21
2019-05-07T00:43:16.657Z,5.22
2019-05-07T00:46:10.389Z,5.32
2019-05-07T00:48:43.949Z,5.36
2019-05-07T00:51:28.594Z,5.43
2019-05-07T00:54:02.826Z,5.51
2019-05-07T00:56:34.902Z,5.54
2019-05-07T00:59:06.181Z,5.57
2019-05-07T01:01:37.360Z,5.47
2019-05-07T01:04:09.112Z,5.30
2019-05-07T01:06:42.413Z,5.20
2019-05-07T01:09:13.909Z,5.11
2019-05-07T01:11:45.695Z,4.96
2019-05-07T01:14:17.015Z,4.85
2019-05-07T01:16:48.779Z,4.76
2019-05-07T01:19:21.926Z,4.67
2019-05-07T01:21:55.180Z,4.60
2019-05-07T01:24:27.016Z,4.57
2019-05-07T01:26:58.832Z,4.51
2019-05-07T01:29:32.839Z,4.55
2019-05-07T01:32:15.160Z,4.55
2019-05-07T01:34:55.312Z,4.67
2019-05-07T01:37:27.260Z,4.69
2019-05-07T01:39:58.380Z,4.73
2019-05-07T01:42:36.405Z,4.78
2019-05-07T01:45:08.060Z,4.88
2019-05-07T01:47:42.321Z,4.98
2019-05-07T01:50:13.748Z,5.07
2019-05-07T01:52:45.684Z,5.13
2019-05-07T01:55:17.507Z,5.18
2019-05-07T01:57:49.393Z,5.22
2019-05-07T02:00:22.395Z,5.25
2019-05-07T02:03:00.025Z,5.27
2019-05-07T02:05:47.458Z,5.28
2019-05-07T02:08:38.581Z,5.30
2019-05-07T02:11:12.862Z,5.31
2019-05-07T02:13:44.104Z,5.31
2019-05-07T02:16:15.837Z,5.33
2019-05-07T02:18:47.689Z,5.32
2019-05-07T02:21:19.577Z,5.32
2019-05-07T02:23:52.341Z,5.30
2019-05-07T02:26:24.389Z,5.31
2019-05-07T02:28:55.608Z,5.35
2019-05-07T02:31:27.381Z,5.36
2019-05-07T02:33:59.241Z,5.40
2019-05-07T02:36:34.033Z,5.41
2019-05-07T02:39:28.440Z,5.43
2019-05-07T02:42:03.440Z,5.45
2019-05-07T02:44:49.413Z,5.49
2019-05-07T02:47:23.649Z,5.50
2019-05-07T02:50:03.343Z,5.51
2019-05-07T02:53:13.790Z,5.54
2019-05-07T02:55:49.425Z,5.55
2019-05-07T02:58:24.042Z,5.58
2019-05-07T03:00:55.179Z,5.57
2019-05-07T03:03:27.075Z,5.58
2019-05-07T03:05:59.027Z,5.60
2019-05-07T03:08:33.081Z,5.61
2019-05-07T03:11:03.845Z,5.61
2019-05-07T03:13:37.862Z,5.61
2019-05-07T03:16:09.130Z,5.60
2019-05-07T03:18:43.547Z,5.58
2019-05-07T03:21:18.526Z,5.60
2019-05-07T03:24:14.912Z,5.60
2019-05-07T03:26:47.238Z,5.61
2019-05-07T03:29:24.021Z,5.72
2019-05-07T03:32:19.370Z,5.71
2019-05-07T03:35:28.583Z,5.67
2019-05-07T03:38:03.091Z,5.67
2019-05-07T03:40:35.067Z,5.73
2019-05-07T03:43:06.995Z,5.72
2019-05-07T03:45:47.606Z,5.73
2019-05-07T03:48:23.763Z,5.78
2019-05-07T03:50:54.796Z,5.84
2019-05-07T03:53:26.690Z,5.86
2019-05-07T03:55:58.901Z,5.93
2019-05-07T03:58:30.217Z,6.04
2019-05-07T04:01:04.353Z,6.09
2019-05-07T04:03:34.899Z,6.11
2019-05-07T04:06:07.045Z,6.13
2019-05-07T04:08:39.075Z,6.15
2019-05-07T04:11:13.411Z,6.18
2019-05-07T04:13:46.101Z,6.22
2019-05-07T04:16:18.420Z,6.31
2019-05-07T04:18:52.788Z,6.38
2019-05-07T04:21:23.580Z,6.32
2019-05-07T04:24:13.740Z,6.36
2019-05-07T04:26:53.539Z,6.42
2019-05-07T04:29:23.901Z,6.50
2019-05-07T04:31:55.700Z,6.58
2019-05-07T04:34:53.921Z,6.65
2019-05-07T04:37:25.985Z,6.80
2019-05-07T04:40:02.901Z,7.00
2019-05-07T04:42:36.327Z,7.11
2019-05-07T04:45:08.799Z,7.14
2019-05-07T04:47:47.030Z,7.19
2019-05-07T04:50:34.650Z,7.24
2019-05-07T04:52:54.037Z,7.31
2019-05-07T04:55:25.462Z,7.38
2019-05-07T04:57:57.372Z,7.46
2019-05-07T05:00:29.274Z,7.54
2019-05-07T05:03:14.124Z,7.72
2019-05-07T05:05:47.681Z,7.86
2019-05-07T05:08:19.676Z,8.00
2019-05-07T05:10:53.759Z,8.12
2019-05-07T05:13:25.823Z,8.18
2019-05-07T05:15:57.807Z,8.32
2019-05-07T05:18:29.148Z,8.44
2019-05-07T05:21:09.175Z,8.53
2019-05-07T05:23:47.175Z,8.61
2019-05-07T05:26:19.135Z,8.63
2019-05-07T05:28:52.520Z,8.73
2019-05-07T05:31:24.690Z,8.82
2019-05-07T05:33:56.573Z,8.92
2019-05-07T05:36:28.447Z,9.05
2019-05-07T05:39:02.341Z,9.06
2019-05-07T05:41:37.656Z,9.16
2019-05-07T05:44:16.330Z,9.26
2019-05-07T05:46:48.219Z,9.34
2019-05-07T05:49:20.103Z,9.21
2019-05-07T05:52:09.715Z,9.07
2019-05-07T05:54:55.443Z,9.02
2019-05-07T05:57:34.094Z,9.16
2019-05-07T06:00:26.006Z,9.41
2019-05-07T06:03:11.935Z,9.55
2019-05-07T06:06:08.867Z,9.76
2019-05-07T06:09:12.338Z,9.91
2019-05-07T06:12:02.873Z,10.10
2019-05-07T06:14:53.951Z,10.39
2019-05-07T06:17:44.472Z,10.29
2019-05-07T06:20:34.350Z,10.09
2019-05-07T06:23:26.017Z,10.03
2019-05-07T06:25:57.914Z,9.95
2019-05-07T06:28:30.007Z,9.73
2019-05-07T06:31:02.263Z,9.50
2019-05-07T06:33:34.191Z,9.33
2019-05-07T06:36:07.022Z,9.07
2019-05-07T06:38:44.679Z,9.24
2019-05-07T06:41:44.446Z,9.05
2019-05-07T06:44:22.252Z,8.96
2019-05-07T06:46:54.833Z,8.92
2019-05-07T06:49:28.028Z,8.81
2019-05-07T06:52:00.016Z,8.75
2019-05-07T06:54:32.289Z,8.47
2019-05-07T06:57:08.162Z,8.49
2019-05-07T06:59:49.454Z,8.51
2019-05-07T07:02:42.603Z,8.61
2019-05-07T07:05:36.081Z,8.67
2019-05-07T07:08:17.162Z,8.75
2019-05-07T07:11:07.722Z,8.71
2019-05-07T07:13:39.859Z,8.63
2019-05-07T07:16:14.058Z,8.87
2019-05-07T07:18:52.268Z,8.87
2019-05-07T07:21:23.105Z,8.73
2019-05-07T07:23:56.454Z,8.58
2019-05-07T07:26:28.840Z,8.68
2019-05-07T07:29:02.045Z,8.75
2019-05-07T07:31:49.562Z,8.92
2019-05-07T07:34:22.856Z,9.03
2019-05-07T07:37:06.055Z,9.19
2019-05-07T07:39:36.414Z,9.21
2019-05-07T07:42:08.771Z,9.10
2019-05-07T07:44:42.573Z,9.08
2019-05-07T07:47:14.987Z,9.00
2019-05-07T07:49:47.303Z,8.93
2019-05-07T07:52:22.981Z,8.82
2019-05-07T07:54:55.155Z,8.79
2019-05-07T07:58:04.150Z,8.88
2019-05-07T08:00:43.932Z,9.06
2019-05-07T08:03:16.632Z,9.23
2019-05-07T08:05:49.051Z,9.55
2019-05-07T08:08:24.190Z,9.80
2019-05-07T08:10:55.656Z,10.12
2019-05-07T08:13:29.163Z,10.16
2019-05-07T08:16:02.440Z,10.11
2019-05-07T08:18:35.094Z,10.10
2019-05-07T08:21:08.031Z,10.13
2019-05-07T08:23:42.414Z,10.21
2019-05-07T08:26:17.672Z,10.37
2019-05-07T08:28:52.284Z,10.59
2019-05-07T08:31:44.643Z,10.94
2019-05-07T08:34:23.705Z,11.27
2019-05-07T08:36:56.026Z,11.30
2019-05-07T08:39:28.280Z,11.12
2019-05-07T08:42:02.209Z,11.26
2019-05-07T08:44:44.421Z,11.18
2019-05-07T08:47:35.387Z,11.66
2019-05-07T08:50:08.111Z,11.98
2019-05-07T08:52:41.953Z,12.28
2019-05-07T08:55:14.622Z,12.44
2019-05-07T08:57:46.887Z,12.20
2019-05-07T09:00:22.316Z,12.16
2019-05-07T09:02:54.572Z,12.35
2019-05-07T09:05:26.801Z,12.30
2019-05-07T09:07:59.026Z,11.92
2019-05-07T09:10:32.621Z,11.74
2019-05-07T09:13:04.829Z,11.65
2019-05-07T09:15:37.053Z,11.50
2019-05-07T09:18:12.389Z,11.70
2019-05-07T09:20:55.839Z,11.49
2019-05-07T09:23:27.764Z,11.33
2019-05-07T09:25:59.712Z,11.15
2019-05-07T09:28:52.282Z,10.98
2019-05-07T09:31:34.416Z,10.75
2019-05-07T09:34:06.244Z,10.71
2019-05-07T09:36:45.940Z,10.77
2019-05-07T09:39:17.802Z,10.67
2019-05-07T09:41:52.502Z,10.50
2019-05-07T09:44:23.825Z,10.59
2019-05-07T09:46:57.814Z,10.54
2019-05-07T09:49:29.041Z,10.83
2019-05-07T09:52:02.612Z,10.96
2019-05-07T09:54:34.767Z,11.01
2019-05-07T09:57:06.726Z,11.03
2019-05-07T09:59:38.688Z,11.00
2019-05-07T10:02:12.307Z,11.05
2019-05-07T10:04:44.524Z,11.33
2019-05-07T10:07:16.526Z,12.09
2019-05-07T10:09:48.548Z,13.04
2019-05-07T10:12:35.031Z,13.50
2019-05-07T10:15:07.532Z,13.69
2019-05-07T10:17:53.746Z,14.75
2019-05-07T10:20:29.537Z,14.96
2019-05-07T10:23:02.394Z,15.59
2019-05-07T10:25:43.020Z,15.33
2019-05-07T10:28:15.538Z,15.75
2019-05-07T10:30:48.478Z,14.44
2019-05-07T10:33:22.700Z,12.81
2019-05-07T10:35:54.234Z,11.93
2019-05-07T10:38:26.298Z,11.42
2019-05-07T10:40:58.457Z,11.35
2019-05-07T10:43:32.832Z,11.27
2019-05-07T10:46:25.238Z,11.26
2019-05-07T10:49:02.902Z,11.30
2019-05-07T10:51:34.992Z,11.31
2019-05-07T10:54:07.216Z,11.28
2019-05-07T10:56:39.302Z,11.28
2019-05-07T10:59:12.190Z,11.44
2019-05-07T11:01:52.209Z,11.52
2019-05-07T11:04:24.068Z,11.66
2019-05-07T11:06:56.095Z,11.99
2019-05-07T11:09:27.432Z,12.57
2019-05-07T11:11:59.443Z,12.61
2019-05-07T11:14:32.169Z,12.60
2019-05-07T11:17:28.900Z,12.59
2019-05-07T11:20:01.086Z,12.51
2019-05-07T11:22:34.688Z,12.58
2019-05-07T11:25:07.111Z,12.59
2019-05-07T11:27:39.187Z,12.95
2019-05-07T11:30:13.915Z,13.33
2019-05-07T11:32:46.835Z,13.70
2019-05-07T11:35:18.763Z,14.61
2019-05-07T11:37:52.057Z,15.24
2019-05-07T11:40:24.700Z,16.17
2019-05-07T11:43:06.284Z,15.97
2019-05-07T11:45:54.082Z,15.87
2019-05-07T11:48:25.304Z,15.37
2019-05-07T11:51:19.779Z,14.92
2019-05-07T11:54:28.593Z,14.52
2019-05-07T11:57:02.517Z,14.35
2019-05-07T11:59:35.275Z,14.83
2019-05-07T12:02:07.299Z,15.58
2019-05-07T12:04:39.179Z,15.59
2019-05-07T12:07:11.891Z,15.92
2019-05-07T12:09:43.964Z,15.85
2019-05-07T12:12:16.065Z,15.54
2019-05-07T12:14:48.084Z,15.46
2019-05-07T12:17:22.389Z,15.30
2019-05-07T12:19:54.364Z,15.51
2019-05-07T12:22:43.779Z,15.35
2019-05-07T12:25:16.415Z,15.29
2019-05-07T12:27:51.962Z,15.51
2019-05-07T12:30:51.615Z,16.02
2019-05-07T12:33:42.797Z,16.60
2019-05-07T12:36:15.962Z,16.75
2019-05-07T12:38:48.987Z,16.93
2019-05-07T12:41:30.159Z,17.26
2019-05-07T12:44:05.724Z,17.34
2019-05-07T12:46:37.445Z,17.24
2019-05-07T12:49:11.780Z,17.46
2019-05-07T12:51:52.431Z,16.91
2019-05-07T12:54:32.761Z,17.06
2019-05-07T12:57:04.571Z,17.13
2019-05-07T12:59:35.847Z,17.66
2019-05-07T13:02:42.079Z,17.42
2019-05-07T13:05:13.065Z,17.19
2019-05-07T13:07:55.362Z,17.61
2019-05-07T13:10:28.872Z,17.65
2019-05-07T13:13:02.191Z,16.60
2019-05-07T13:15:33.509Z,16.44
2019-05-07T13:18:05.406Z,16.67
2019-05-07T13:20:37.653Z,16.63
2019-05-07T13:23:11.836Z,16.15
2019-05-07T13:25:43.194Z,16.75
2019-05-07T13:28:15.204Z,17.29
2019-05-07T13:30:47.119Z,17.62
2019-05-07T13:33:19.466Z,17.35
2019-05-07T13:35:52.218Z,16.95
2019-05-07T13:38:49.365Z,17.11
2019-05-07T13:41:53.636Z,17.54
2019-05-07T13:44:41.880Z,17.68
2019-05-07T13:47:45.634Z,17.70
2019-05-07T13:50:17.670Z,16.93
2019-05-07T13:52:49.655Z,16.42
2019-05-07T13:55:21.946Z,15.94
2019-05-07T13:57:53.948Z,15.43
2019-05-07T14:00:32.427Z,15.30
2019-05-07T14:03:04.742Z,14.92
2019-05-07T14:05:36.696Z,14.73
2019-05-07T14:08:07.984Z,14.68
2019-05-07T14:10:40.206Z,14.57
2019-05-07T14:13:17.188Z,14.46
2019-05-07T14:16:04.757Z,14.64
2019-05-07T14:18:39.082Z,14.90
2019-05-07T14:21:13.042Z,15.55
2019-05-07T14:23:45.154Z,15.85
2019-05-07T14:26:17.110Z,16.26
2019-05-07T14:28:49.122Z,16.70
2019-05-07T14:31:21.102Z,17.03
2019-05-07T14:33:59.132Z,16.80
2019-05-07T14:36:36.334Z,16.72
2019-05-07T14:39:09.366Z,17.07
2019-05-07T14:41:42.751Z,17.43
2019-05-07T14:44:18.006Z,17.18
2019-05-07T14:46:51.587Z,17.47
2019-05-07T14:49:22.868Z,17.46
2019-05-07T14:51:54.658Z,17.57
2019-05-07T14:54:25.928Z,17.38
2019-05-07T14:56:57.750Z,17.27
2019-05-07T14:59:29.869Z,16.88
2019-05-07T15:02:02.841Z,16.54
2019-05-07T15:04:35.006Z,16.31
2019-05-07T15:07:07.026Z,16.22
2019-05-07T15:09:38.579Z,16.03
2019-05-07T15:12:13.988Z,16.02
2019-05-07T15:14:44.483Z,15.73
2019-05-07T15:17:24.692Z,15.88
2019-05-07T15:19:56.670Z,15.76
2019-05-07T15:22:52.468Z,15.19
2019-05-07T15:25:23.512Z,15.15
2019-05-07T15:27:55.638Z,14.77
2019-05-07T15:30:35.395Z,14.75
2019-05-07T15:33:06.900Z,14.84
2019-05-07T15:35:38.399Z,14.61
2019-05-07T15:38:11.634Z,15.10
2019-05-07T15:40:43.776Z,14.99
2019-05-07T15:43:15.749Z,14.99
2019-05-07T15:45:52.316Z,15.68
2019-05-07T15:48:23.086Z,15.56
2019-05-07T15:50:54.972Z,15.51
2019-05-07T15:53:42.606Z,15.45
2019-05-07T15:56:14.159Z,15.00
2019-05-07T15:58:45.432Z,14.62
2019-05-07T16:01:16.634Z,14.58
2019-05-07T16:03:48.590Z,14.40
2019-05-07T16:06:22.000Z,14.69
2019-05-07T16:08:57.918Z,14.93
2019-05-07T16:11:29.146Z,14.90
2019-05-07T16:14:26.801Z,14.77
2019-05-07T16:17:06.434Z,14.82
2019-05-07T16:19:37.663Z,14.71
2019-05-07T16:22:12.898Z,14.35
2019-05-07T16:24:44.301Z,14.31
2019-05-07T16:27:15.539Z,14.46
2019-05-07T16:29:49.153Z,14.62
2019-05-07T16:32:23.865Z,14.52
2019-05-07T16:34:54.099Z,14.35
2019-05-07T16:37:26.041Z,14.12
2019-05-07T16:39:57.648Z,13.83
2019-05-07T16:42:28.995Z,13.52
2019-05-07T16:45:03.113Z,13.26
2019-05-07T16:47:35.202Z,13.31
2019-05-07T16:50:07.707Z,13.20
2019-05-07T16:52:38.929Z,13.28
2019-05-07T16:55:12.107Z,13.28
2019-05-07T16:58:02.770Z,13.36
2019-05-07T17:00:39.638Z,13.41
2019-05-07T17:03:14.204Z,13.46
2019-05-07T17:05:46.305Z,13.35
2019-05-07T17:08:34.916Z,13.19
2019-05-07T17:11:06.849Z,13.16
2019-05-07T17:13:39.032Z,13.09
2019-05-07T17:16:12.385Z,13.14
2019-05-07T17:18:44.393Z,13.07
2019-05-07T17:21:15.611Z,13.00
2019-05-07T17:23:47.862Z,13.01
2019-05-07T17:26:19.153Z,12.97
2019-05-07T17:28:52.109Z,12.91
2019-05-07T17:31:24.725Z,12.94
2019-05-07T17:33:56.760Z,12.84
2019-05-07T17:36:28.593Z,12.72
2019-05-07T17:39:02.752Z,12.62
2019-05-07T17:41:35.465Z,12.42
2019-05-07T17:44:06.597Z,12.15
2019-05-07T17:46:39.241Z,11.94
2019-05-07T17:49:11.969Z,11.80
2019-05-07T17:51:46.305Z,11.65
2019-05-07T17:54:18.135Z,11.50
2019-05-07T17:56:49.804Z,11.41
2019-05-07T17:59:22.910Z,11.38
2019-05-07T18:02:29.640Z,11.38
2019-05-07T18:05:03.522Z,11.38
2019-05-07T18:07:37.465Z,11.45
2019-05-07T18:10:12.564Z,11.49
2019-05-07T18:12:43.913Z,11.46
2019-05-07T18:15:16.436Z,11.41
2019-05-07T18:18:03.108Z,11.32
2019-05-07T18:20:35.563Z,11.22
2019-05-07T18:23:10.735Z,11.11
2019-05-07T18:25:42.912Z,11.03
2019-05-07T18:28:16.088Z,10.93
2019-05-07T18:30:47.699Z,10.82
2019-05-07T18:33:28.316Z,10.72
2019-05-07T18:35:59.984Z,10.63
2019-05-07T18:38:32.941Z,10.54
2019-05-07T18:41:04.467Z,10.52
2019-05-07T18:43:37.426Z,10.48
2019-05-07T18:46:09.279Z,10.47
2019-05-07T18:48:42.690Z,10.43
2019-05-07T18:51:15.305Z,10.40
2019-05-07T18:53:47.362Z,10.36
2019-05-07T18:56:21.895Z,10.39
2019-05-07T18:58:53.684Z,10.36
2019-05-07T19:01:28.259Z,10.32
2019-05-07T19:04:02.058Z,10.30
2019-05-07T19:06:33.851Z,10.28
2019-05-07T19:09:06.870Z,10.24
2019-05-07T19:11:42.551Z,10.19
2019-05-07T19:14:14.272Z,10.11
2019-05-07T19:16:46.236Z,9.97
2019-05-07T19:19:18.065Z,9.75
2019-05-07T19:21:49.439Z,9.52
2019-05-07T19:24:23.112Z,9.28
2019-05-07T19:26:56.051Z,9.07
2019-05-07T19:29:28.697Z,8.91
2019-05-07T19:32:03.142Z,8.75
2019-05-07T19:34:34.958Z,8.60
2019-05-07T19:37:07.397Z,8.48
2019-05-07T19:39:39.612Z,8.37
2019-05-07T19:42:12.103Z,8.22
2019-05-07T19:44:43.736Z,8.08
2019-05-07T19:47:15.099Z,7.95
2019-05-07T19:49:46.385Z,7.83
2019-05-07T19:52:18.675Z,7.77
2019-05-07T19:54:58.820Z,7.68
2019-05-07T19:57:28.890Z,7.60
2019-05-07T20:00:00.413Z,7.49
2019-05-07T20:02:38.594Z,7.41
2019-05-07T20:05:12.108Z,7.36
2019-05-07T20:07:45.589Z,7.29
2019-05-07T20:10:21.989Z,7.24
2019-05-07T20:12:53.928Z,7.14
2019-05-07T20:15:25.905Z,7.12
2019-05-07T20:17:58.092Z,7.09
2019-05-07T20:20:29.858Z,7.09
2019-05-07T20:23:03.050Z,7.08
2019-05-07T20:25:34.467Z,7.08
2019-05-07T20:28:05.982Z,7.04
2019-05-07T20:30:38.326Z,7.04
2019-05-07T20:33:10.515Z,7.00
2019-05-07T20:35:43.753Z,6.93
2019-05-07T20:38:15.239Z,6.86
2019-05-07T20:40:46.672Z,6.81
2019-05-07T20:43:18.627Z,6.77
2019-05-07T20:45:51.844Z,6.71
2019-05-07T20:48:23.269Z,6.67
2019-05-07T20:50:55.167Z,6.62
2019-05-07T20:53:44.639Z,6.59
2019-05-07T20:56:17.148Z,6.55
2019-05-07T20:58:49.099Z,6.48
2019-05-07T21:01:22.019Z,6.48
2019-05-07T21:03:54.007Z,6.46
2019-05-07T21:06:25.903Z,6.40
2019-05-07T21:08:57.783Z,6.36
2019-05-07T21:11:29.033Z,6.33
2019-05-07T21:14:03.076Z,6.25
2019-05-07T21:16:35.938Z,6.18
2019-05-07T21:19:07.215Z,6.11
2019-05-07T21:21:38.281Z,6.06
2019-05-07T21:24:10.182Z,5.99
2019-05-07T21:26:42.468Z,5.93
2019-05-07T21:29:14.566Z,5.95
2019-05-07T21:31:46.388Z,5.89
2019-05-07T21:34:18.287Z,5.84
2019-05-07T21:36:52.301Z,5.80
2019-05-07T21:39:23.913Z,5.76
2019-05-07T21:41:55.722Z,5.67
2019-05-07T21:44:26.925Z,5.59
2019-05-07T21:46:58.081Z,5.58
2019-05-07T21:49:32.156Z,5.56
2019-05-07T21:52:03.459Z,5.56
2019-05-07T21:54:57.188Z,5.53
2019-05-07T21:57:52.384Z,5.50
2019-05-07T22:00:42.323Z,5.46
2019-05-07T22:03:17.407Z,5.43
2019-05-07T22:05:49.278Z,5.42
2019-05-07T22:08:21.876Z,5.42
2019-05-07T22:10:53.279Z,5.36
2019-05-07T22:13:28.094Z,5.33
2019-05-07T22:15:58.093Z,5.27
2019-05-07T22:18:32.035Z,5.25
2019-05-07T22:21:04.601Z,5.18
2019-05-07T22:23:35.763Z,5.07
2019-05-07T22:26:20.379Z,5.04
2019-05-07T22:28:42.274Z,5.09
2019-05-07T22:31:33.027Z,5.10
2019-05-07T22:34:32.579Z,5.15
2019-05-07T22:37:29.754Z,5.16
2019-05-07T22:39:58.646Z,5.14
2019-05-07T22:42:32.687Z,5.11
2019-05-07T22:45:04.975Z,5.15
2019-05-07T22:47:38.420Z,5.13
2019-05-07T22:50:11.996Z,5.12
2019-05-07T22:52:45.058Z,5.13
2019-05-07T22:55:16.278Z,5.06
2019-05-07T22:58:15.942Z,4.99
2019-05-07T23:00:52.619Z,4.94
2019-05-07T23:03:24.434Z,4.89
2019-05-07T23:05:57.323Z,4.81
2019-05-07T23:08:29.081Z,4.80
2019-05-07T23:11:02.835Z,4.77
2019-05-07T23:13:35.016Z,4.68
2019-05-07T23:16:07.990Z,4.64
2019-05-07T23:18:39.825Z,4.59
2019-05-07T23:21:11.709Z,4.59
2019-05-07T23:23:43.611Z,4.59
2019-05-07T23:26:15.538Z,4.57
2019-05-07T23:28:47.421Z,4.55
2019-05-07T23:31:19.252Z,4.54
2019-05-07T23:33:52.275Z,4.50
2019-05-07T23:36:23.816Z,4.46
2019-05-07T23:38:55.590Z,4.43
2019-05-07T23:41:41.933Z,4.36
2019-05-07T23:44:17.681Z,4.35
2019-05-07T23:46:51.847Z,4.31
2019-05-07T23:49:23.241Z,4.26
2019-05-07T23:51:55.205Z,4.19
2019-05-07T23:54:27.019Z,4.14
2019-05-07T23:57:05.930Z,4.11
2019-05-07T23:59:32.984Z,4.10
